Time;durP1;ratioP1;P1;durP2;ratioP2;P2;SDS_P1;SDS_P2;PMS_P1;PMS_P2;Temp;Humidity;BMP_temperature;BMP_pressure;BME280_temperature;BME280_humidity;BME280_pressure;Samples;Min_cycle;Max_cycle;Signal;HPM_P1;HPM_P2
2023/11/19 00:01:50;;;;;;;20.25;3.92;;;19.20;60.60;;;;;;5072174;28;20191;-61
2023/11/19 00:04:17;;;;;;;18.50;4.70;;;19.20;60.50;;;;;;5072259;28;20214;-60
2023/11/19 00:06:45;;;;;;;18.13;3.88;;;19.10;60.30;;;;;;5073896;28;20598;-61
2023/11/19 00:09:12;;;;;;;18.35;4.10;;;19.10;60.30;;;;;;5076466;28;20292;-61
2023/11/19 00:11:39;;;;;;;19.55;4.28;;;19.10;60.30;;;;;;5075954;28;20198;-61
2023/11/19 00:14:08;;;;;;;17.00;4.20;;;19.10;60.20;;;;;;5076129;28;20210;-61
2023/11/19 00:16:35;;;;;;;16.80;4.10;;;19.10;60.20;;;;;;5076125;28;20220;-61
2023/11/19 00:19:03;;;;;;;20.13;4.18;;;19.10;60.20;;;;;;5075740;28;20692;-60
2023/11/19 00:21:33;;;;;;;17.15;4.25;;;19.10;60.20;;;;;;5076074;28;20187;-59
2023/11/19 00:24:01;;;;;;;19.05;4.13;;;19.10;60.20;;;;;;5075951;28;20229;-59
2023/11/19 00:26:27;;;;;;;19.50;3.95;;;19.10;60.10;;;;;;5075906;28;20191;-60
2023/11/19 00:28:55;;;;;;;20.83;4.57;;;19.10;60.20;;;;;;5075953;28;20223;-61
2023/11/19 00:31:23;;;;;;;17.08;3.72;;;19.10;60.20;;;;;;5075760;28;20187;-61
2023/11/19 00:33:49;;;;;;;18.75;3.65;;;19.10;60.10;;;;;;5075463;28;20704;-60
2023/11/19 00:36:16;;;;;;;20.27;4.95;;;19.10;60.10;;;;;;5075704;28;20193;-61
2023/11/19 00:38:43;;;;;;;17.58;4.68;;;19.10;60.10;;;;;;5075407;28;20737;-59
2023/11/19 00:41:11;;;;;;;16.95;4.53;;;19.00;60.00;;;;;;5075553;28;20244;-61
2023/11/19 00:43:38;;;;;;;21.92;4.38;;;19.10;60.00;;;;;;5075144;28;20250;-61
2023/11/19 00:46:10;;;;;;;14.63;3.88;;;19.10;60.00;;;;;;5075528;28;20191;-59
2023/11/19 00:48:37;;;;;;;21.92;4.47;;;19.00;59.90;;;;;;5075443;28;20301;-60
2023/11/19 00:51:05;;;;;;;18.35;3.80;;;19.10;60.00;;;;;;5075519;28;20197;-61
2023/11/19 00:53:33;;;;;;;19.55;4.30;;;19.00;59.90;;;;;;5075291;28;20297;-60
2023/11/19 00:56:00;;;;;;;18.05;4.22;;;19.00;59.90;;;;;;5075317;28;20221;-60
2023/11/19 00:58:29;;;;;;;20.83;3.97;;;19.00;59.90;;;;;;5074986;28;20568;-59
2023/11/19 01:00:57;;;;;;;22.45;4.85;;;19.00;59.90;;;;;;5075146;28;20241;-61
2023/11/19 01:03:24;;;;;;;19.85;4.38;;;19.00;59.90;;;;;;5075159;28;20219;-60
2023/11/19 01:05:52;;;;;;;20.75;3.63;;;19.00;59.80;;;;;;5075169;28;20283;-61
2023/11/19 01:08:19;;;;;;;21.10;4.40;;;19.00;59.90;;;;;;5074645;28;20230;-60
2023/11/19 01:10:46;;;;;;;22.45;4.65;;;19.00;59.90;;;;;;5075345;28;20233;-60
2023/11/19 01:13:13;;;;;;;17.83;4.38;;;19.00;59.90;;;;;;5074686;28;20674;-61
2023/11/19 01:15:42;;;;;;;17.58;4.20;;;19.00;59.90;;;;;;5075074;28;20183;-60
2023/11/19 01:18:09;;;;;;;22.13;4.47;;;19.00;59.80;;;;;;5074725;28;20197;-61
2023/11/19 01:20:36;;;;;;;19.40;4.55;;;19.00;59.90;;;;;;5074884;28;20218;-61
2023/11/19 01:23:03;;;;;;;21.23;4.47;;;19.00;59.90;;;;;;5074418;28;20652;-61
2023/11/19 01:25:31;;;;;;;18.83;4.07;;;19.00;59.80;;;;;;5074823;28;20187;-61
2023/11/19 01:27:58;;;;;;;12.43;3.83;;;19.00;59.70;;;;;;5074807;28;20277;-61
2023/11/19 01:30:25;;;;;;;17.60;4.32;;;19.00;59.80;;;;;;5074918;28;20222;-61
2023/11/19 01:32:54;;;;;;;19.38;3.90;;;19.00;59.80;;;;;;5074379;28;20183;-60
2023/11/19 01:35:21;;;;;;;20.58;4.18;;;19.00;59.80;;;;;;5074555;28;20720;-60
2023/11/19 01:37:47;;;;;;;19.50;5.03;;;19.00;59.80;;;;;;5074622;28;20191;-61
2023/11/19 01:40:16;;;;;;;21.40;4.25;;;19.00;59.80;;;;;;5074420;28;20583;-61
2023/11/19 01:42:43;;;;;;;17.20;4.32;;;19.00;59.80;;;;;;5074489;28;20266;-61
2023/11/19 01:45:10;;;;;;;19.17;4.63;;;19.00;59.80;;;;;;5074643;28;20298;-60
2023/11/19 01:47:37;;;;;;;17.45;4.00;;;19.00;59.80;;;;;;5074416;28;20278;-61
2023/11/19 01:50:08;;;;;;;24.55;4.07;;;19.00;59.80;;;;;;5074604;28;20234;-61
2023/11/19 01:52:37;;;;;;;24.60;5.00;;;19.00;59.80;;;;;;5074281;28;20187;-59
2023/11/19 01:55:05;;;;;;;16.92;4.30;;;18.90;59.60;;;;;;5074120;28;20692;-60
2023/11/19 01:57:32;;;;;;;19.35;4.47;;;18.90;59.60;;;;;;5074251;28;20218;-61
2023/11/19 02:00:00;;;;;;;15.65;3.75;;;18.90;59.50;;;;;;5073926;28;20759;-60
2023/11/19 02:02:27;;;;;;;19.38;4.40;;;18.90;59.60;;;;;;5074127;28;20187;-59
2023/11/19 02:04:54;;;;;;;23.67;4.72;;;18.90;59.50;;;;;;5074195;28;20211;-60
2023/11/19 02:07:23;;;;;;;19.25;4.65;;;19.00;59.60;;;;;;5073877;28;20666;-59
2023/11/19 02:09:50;;;;;;;21.77;4.60;;;18.90;59.50;;;;;;5073841;28;20310;-60
2023/11/19 02:12:17;;;;;;;21.00;4.40;;;18.90;59.50;;;;;;5068506;28;20653;-63
2023/11/19 02:14:44;;;;;;;20.42;4.95;;;18.90;59.40;;;;;;5053919;28;20215;-60
2023/11/19 02:17:26;;;;;;;22.58;4.50;;;18.90;59.50;;;;;;5053382;28;20671;-61
2023/11/19 02:19:53;;;;;;;22.70;4.30;;;18.90;59.50;;;;;;5053516;28;20250;-61
2023/11/19 02:22:22;;;;;;;27.05;5.55;;;18.90;60.10;;;;;;5053710;28;20223;-61
2023/11/19 02:24:52;;;;;;;19.92;4.25;;;18.90;59.40;;;;;;5053545;28;20302;-61
2023/11/19 02:27:31;;;;;;;21.85;5.13;;;18.90;59.40;;;;;;5053617;28;20198;-61
2023/11/19 02:30:00;;;;;;;18.65;4.40;;;18.90;59.40;;;;;;5053132;28;20223;-61
2023/11/19 02:32:30;;;;;;;19.63;4.25;;;18.90;59.40;;;;;;5053159;28;20693;-60
2023/11/19 02:34:57;;;;;;;20.77;4.90;;;18.90;59.40;;;;;;5053286;28;20220;-59
2023/11/19 02:37:24;;;;;;;23.67;4.82;;;18.90;59.40;;;;;;5053427;28;20219;-62
2023/11/19 02:39:51;;;;;;;22.83;4.47;;;18.90;59.40;;;;;;5053464;28;20602;-60
2023/11/19 02:42:18;;;;;;;22.10;4.78;;;18.90;59.30;;;;;;5053387;28;20187;-60
2023/11/19 02:44:45;;;;;;;25.98;5.13;;;18.90;59.30;;;;;;5053238;28;20215;-60
2023/11/19 02:47:14;;;;;;;21.67;4.00;;;18.90;59.30;;;;;;5053303;28;20210;-61
2023/11/19 02:49:41;;;;;;;18.90;4.28;;;18.90;59.30;;;;;;5053278;28;20219;-60
2023/11/19 02:52:10;;;;;;;22.33;4.20;;;18.90;59.30;;;;;;5053218;28;20291;-60
2023/11/19 02:54:37;;;;;;;17.80;4.43;;;18.90;59.30;;;;;;5053156;28;20224;-61
2023/11/19 02:57:05;;;;;;;18.38;4.53;;;18.90;59.30;;;;;;5053119;28;20184;-60
2023/11/19 02:59:38;;;;;;;19.95;4.75;;;18.80;59.20;;;;;;5052891;28;20747;-60
2023/11/19 03:02:06;;;;;;;23.30;5.38;;;18.80;59.20;;;;;;5052722;28;20188;-60
2023/11/19 03:04:35;;;;;;;18.77;4.13;;;18.80;59.20;;;;;;5052992;28;20258;-62
2023/11/19 03:07:02;;;;;;;20.15;4.28;;;18.80;59.20;;;;;;5052649;28;20231;-61
2023/11/19 03:09:29;;;;;;;18.75;4.10;;;18.90;59.30;;;;;;5053084;28;20222;-61
2023/11/19 03:11:56;;;;;;;20.08;4.15;;;18.80;59.20;;;;;;5052531;28;20192;-60
2023/11/19 03:14:23;;;;;;;17.08;4.22;;;18.90;59.30;;;;;;5052855;28;20211;-58
2023/11/19 03:16:50;;;;;;;18.88;4.18;;;18.80;59.20;;;;;;5052764;28;20196;-61
2023/11/19 03:19:17;;;;;;;21.33;4.22;;;18.80;59.20;;;;;;5052683;28;20310;-60
2023/11/19 03:21:48;;;;;;;17.65;4.07;;;18.80;59.20;;;;;;5052381;28;20722;-61
2023/11/19 03:24:15;;;;;;;20.95;4.07;;;18.80;59.20;;;;;;5052606;28;20219;-62
2023/11/19 03:26:42;;;;;;;18.35;4.22;;;18.80;59.80;;;;;;5052600;28;20198;-61
2023/11/19 03:29:09;;;;;;;18.08;4.90;;;18.80;59.20;;;;;;5052344;28;20715;-61
2023/11/19 03:31:36;;;;;;;20.02;4.95;;;18.80;59.20;;;;;;5052507;28;20187;-61
2023/11/19 03:34:03;;;;;;;16.05;4.40;;;18.80;59.20;;;;;;5052644;28;20576;-61
2023/11/19 03:36:33;;;;;;;17.80;3.63;;;18.80;59.20;;;;;;5052452;28;20199;-61
2023/11/19 03:39:03;;;;;;;22.85;4.45;;;18.80;59.20;;;;;;5052492;28;20242;-61
2023/11/19 03:41:29;;;;;;;17.17;4.30;;;18.80;59.20;;;;;;5051370;28;20211;-61
2023/11/19 03:43:57;;;;;;;21.15;4.68;;;18.80;59.80;;;;;;5052027;28;20219;-60
2023/11/19 03:46:24;;;;;;;19.20;3.88;;;18.80;59.20;;;;;;5052066;28;20274;-61
2023/11/19 03:48:51;;;;;;;19.27;3.85;;;18.80;59.20;;;;;;5052258;28;20298;-60
2023/11/19 03:51:18;;;;;;;17.30;4.13;;;18.80;59.20;;;;;;5051983;28;20278;-61
2023/11/19 03:53:46;;;;;;;21.95;4.43;;;18.80;59.20;;;;;;5052159;28;20322;-59
2023/11/19 03:56:14;;;;;;;22.52;3.97;;;18.80;59.20;;;;;;5051963;28;20789;-60
2023/11/19 03:58:42;;;;;;;17.67;4.18;;;18.80;59.20;;;;;;5052241;28;20220;-60
2023/11/19 04:01:13;;;;;;;24.25;5.15;;;18.70;59.10;;;;;;5052122;28;20215;-60
2023/11/19 04:03:40;;;;;;;22.58;4.63;;;18.70;59.10;;;;;;5052123;28;20211;-61
2023/11/19 04:06:08;;;;;;;24.88;4.80;;;18.70;59.10;;;;;;5051803;28;20267;-60
2023/11/19 04:08:35;;;;;;;18.88;4.07;;;18.80;59.20;;;;;;5052107;28;20287;-61
2023/11/19 04:11:02;;;;;;;18.42;4.18;;;18.70;59.10;;;;;;5052345;28;20191;-60
2023/11/19 04:13:31;;;;;;;23.30;4.95;;;18.80;59.20;;;;;;5051994;28;20281;-61
2023/11/19 04:15:58;;;;;;;21.65;4.63;;;18.80;59.20;;;;;;5052059;28;20282;-60
2023/11/19 04:18:24;;;;;;;18.15;4.20;;;18.80;59.20;;;;;;5051970;28;20265;-59
2023/11/19 04:20:51;;;;;;;21.75;4.45;;;18.70;59.10;;;;;;5051615;28;20594;-61
2023/11/19 04:23:18;;;;;;;17.55;4.28;;;18.80;59.20;;;;;;5051912;28;20202;-60
2023/11/19 04:25:46;;;;;;;21.25;4.38;;;18.80;59.20;;;;;;5051963;28;20278;-60
2023/11/19 04:28:13;;;;;;;20.05;4.65;;;18.70;59.10;;;;;;5051925;28;20196;-59
2023/11/19 04:30:41;;;;;;;14.77;3.75;;;18.70;59.10;;;;;;5051798;28;20558;-60
2023/11/19 04:33:08;;;;;;;19.45;4.25;;;18.70;59.10;;;;;;5051915;28;20191;-61
2023/11/19 04:35:34;;;;;;;19.38;4.28;;;18.70;59.10;;;;;;5051732;28;20665;-59
2023/11/19 04:38:01;;;;;;;21.05;4.30;;;18.70;59.10;;;;;;5051550;28;20192;-61
2023/11/19 04:40:28;;;;;;;21.05;4.50;;;18.70;59.10;;;;;;5051602;28;20685;-60
2023/11/19 04:42:55;;;;;;;20.90;4.45;;;18.80;59.20;;;;;;5051757;28;20184;-61
2023/11/19 04:45:22;;;;;;;27.10;4.97;;;18.70;59.10;;;;;;5052017;28;20219;-60
2023/11/19 04:47:50;;;;;;;23.55;5.25;;;18.70;59.10;;;;;;5051411;28;20187;-60
2023/11/19 04:50:17;;;;;;;19.67;3.95;;;18.70;59.10;;;;;;5051898;28;20222;-61
2023/11/19 04:52:45;;;;;;;19.88;4.07;;;18.70;59.10;;;;;;5053699;28;20192;-60
2023/11/19 04:55:14;;;;;;;19.13;4.93;;;18.70;59.10;;;;;;5055566;28;20220;-61
2023/11/19 04:57:41;;;;;;;22.67;5.28;;;18.70;59.10;;;;;;5055423;28;20202;-58
2023/11/19 05:00:11;;;;;;;21.20;4.63;;;18.70;59.10;;;;;;5055406;28;20306;-61
2023/11/19 05:02:38;;;;;;;20.10;3.95;;;18.70;59.10;;;;;;5055160;28;20219;-61
2023/11/19 05:05:07;;;;;;;20.65;4.78;;;18.70;59.10;;;;;;5055325;28;20247;-60
2023/11/19 05:07:34;;;;;;;19.92;4.40;;;18.70;59.10;;;;;;5054916;28;20232;-61
2023/11/19 05:10:01;;;;;;;17.38;4.10;;;18.70;59.00;;;;;;5054989;28;20211;-61
2023/11/19 05:12:27;;;;;;;16.75;3.72;;;18.70;59.10;;;;;;5054779;28;20661;-60
2023/11/19 05:14:55;;;;;;;25.05;4.38;;;18.70;59.10;;;;;;5055185;28;20250;-60
2023/11/19 05:17:21;;;;;;;20.27;4.38;;;18.70;59.00;;;;;;5054954;28;20278;-61
2023/11/19 05:19:48;;;;;;;22.17;5.00;;;18.70;59.00;;;;;;5055053;28;20360;-59
2023/11/19 05:22:18;;;;;;;17.75;3.85;;;18.70;59.00;;;;;;5054814;28;20242;-60
2023/11/19 05:24:45;;;;;;;23.35;4.80;;;18.70;59.00;;;;;;5054910;28;20302;-61
2023/11/19 05:27:13;;;;;;;18.60;4.38;;;18.70;59.00;;;;;;5054853;28;20202;-60
2023/11/19 05:29:41;;;;;;;22.77;4.63;;;18.70;59.00;;;;;;5054818;28;20223;-61
2023/11/19 05:32:08;;;;;;;21.13;4.30;;;18.70;59.00;;;;;;5054730;28;20188;-61
2023/11/19 05:34:35;;;;;;;22.27;4.55;;;18.70;59.00;;;;;;5054675;28;20277;-60
2023/11/19 05:37:02;;;;;;;25.23;4.32;;;18.70;59.00;;;;;;5054322;28;20645;-61
2023/11/19 05:39:30;;;;;;;19.25;4.00;;;18.70;59.00;;;;;;5054634;28;20227;-61
2023/11/19 05:41:57;;;;;;;21.42;4.07;;;18.70;59.00;;;;;;5054439;28;20230;-60
2023/11/19 05:44:24;;;;;;;20.88;4.05;;;18.70;59.00;;;;;;5054501;28;20303;-61
2023/11/19 05:46:51;;;;;;;19.30;4.70;;;18.70;59.00;;;;;;5054064;28;20649;-60
2023/11/19 05:49:18;;;;;;;20.30;4.55;;;18.70;58.90;;;;;;5054140;28;20693;-61
2023/11/19 05:51:46;;;;;;;21.85;4.32;;;18.60;58.80;;;;;;5054054;28;20231;-60
2023/11/19 05:54:13;;;;;;;21.73;4.28;;;18.70;58.90;;;;;;5054291;28;20226;-61
2023/11/19 05:56:42;;;;;;;16.95;4.18;;;18.70;58.90;;;;;;5053847;28;20191;-61
2023/11/19 05:59:14;;;;;;;23.75;4.80;;;18.60;58.80;;;;;;5054131;28;20212;-60
2023/11/19 06:01:42;;;;;;;23.45;5.15;;;18.70;58.90;;;;;;5053856;28;20254;-60
2023/11/19 06:04:09;;;;;;;21.70;4.60;;;18.70;58.90;;;;;;5052736;28;20739;-60
2023/11/19 06:06:36;;;;;;;21.25;4.18;;;18.70;59.50;;;;;;5053823;28;20434;-60
2023/11/19 06:09:06;;;;;;;18.27;4.22;;;18.60;58.70;;;;;;5054242;28;20322;-60
2023/11/19 06:11:33;;;;;;;17.95;3.80;;;18.70;58.80;;;;;;5054222;28;20201;-60
2023/11/19 06:14:02;;;;;;;20.48;4.70;;;18.60;58.70;;;;;;5053932;28;20223;-60
2023/11/19 06:16:29;;;;;;;22.48;4.82;;;18.60;58.70;;;;;;5053847;28;20191;-60
2023/11/19 06:18:55;;;;;;;19.95;4.13;;;18.60;58.70;;;;;;5053476;28;20709;-61
2023/11/19 06:21:22;;;;;;;20.58;4.07;;;18.60;58.70;;;;;;5053718;28;20299;-60
2023/11/19 06:23:51;;;;;;;19.05;4.28;;;18.60;58.70;;;;;;5053646;28;20188;-60
2023/11/19 06:26:18;;;;;;;17.05;4.07;;;18.60;58.70;;;;;;5053340;28;20810;-60
2023/11/19 06:28:46;;;;;;;15.95;4.55;;;18.60;58.70;;;;;;5053573;28;20284;-60
2023/11/19 06:31:16;;;;;;;19.00;4.20;;;18.70;58.70;;;;;;5053284;28;20657;-60
2023/11/19 06:33:42;;;;;;;21.38;4.43;;;18.60;58.60;;;;;;5053353;28;20191;-60
2023/11/19 06:36:10;;;;;;;20.65;4.22;;;18.60;58.60;;;;;;5053508;28;20662;-60
2023/11/19 06:38:37;;;;;;;20.67;4.45;;;18.60;58.60;;;;;;5053340;28;20203;-60
2023/11/19 06:41:09;;;;;;;20.60;3.80;;;18.60;58.60;;;;;;5053065;28;20672;-61
2023/11/19 06:43:36;;;;;;;18.60;4.43;;;18.60;58.60;;;;;;5053240;28;20191;-60
2023/11/19 06:46:05;;;;;;;18.10;4.45;;;18.60;58.50;;;;;;5053314;28;20237;-60
2023/11/19 06:48:33;;;;;;;23.73;4.25;;;18.60;58.50;;;;;;5053248;28;20184;-61
2023/11/19 06:51:01;;;;;;;21.13;4.25;;;18.60;58.50;;;;;;5052897;28;20708;-60
2023/11/19 06:53:28;;;;;;;18.52;4.18;;;18.60;58.50;;;;;;5053135;28;20279;-60
2023/11/19 06:55:56;;;;;;;20.55;4.68;;;18.60;58.50;;;;;;5053034;28;20341;-58
2023/11/19 06:58:23;;;;;;;22.13;4.20;;;18.60;58.50;;;;;;5053126;28;20624;-60
2023/11/19 07:00:51;;;;;;;24.83;4.25;;;18.60;58.50;;;;;;5052927;28;20731;-60
2023/11/19 07:03:18;;;;;;;19.05;4.32;;;18.60;58.50;;;;;;5052932;28;20196;-61
2023/11/19 07:05:46;;;;;;;20.50;4.15;;;18.60;58.40;;;;;;5054625;28;20234;-60
2023/11/19 07:08:13;;;;;;;21.15;4.38;;;18.60;58.40;;;;;;5061787;28;20228;-60
2023/11/19 07:10:39;;;;;;;21.55;4.55;;;18.60;58.40;;;;;;5061643;28;20238;-60
2023/11/19 07:13:07;;;;;;;17.90;3.60;;;18.60;58.40;;;;;;5072480;28;20194;-60
2023/11/19 07:15:34;;;;;;;17.50;3.97;;;18.60;58.40;;;;;;5058113;28;20315;-60
2023/11/19 07:18:01;;;;;;;18.13;3.88;;;18.60;58.40;;;;;;5052780;28;20613;-60
2023/11/19 07:20:28;;;;;;;20.92;4.88;;;18.60;58.40;;;;;;5052860;28;20310;-60
2023/11/19 07:22:56;;;;;;;21.15;4.13;;;18.60;58.40;;;;;;5052515;28;20219;-60
2023/11/19 07:25:24;;;;;;;18.77;4.45;;;18.60;59.00;;;;;;5052836;28;20246;-60
2023/11/19 07:27:52;;;;;;;19.73;4.00;;;18.60;58.30;;;;;;5052601;28;20200;-61
2023/11/19 07:30:19;;;;;;;20.67;4.72;;;18.50;58.20;;;;;;5052719;28;20219;-60
2023/11/19 07:32:46;;;;;;;17.65;4.78;;;18.60;58.40;;;;;;5052151;28;20569;-61
2023/11/19 07:35:13;;;;;;;18.83;4.07;;;18.60;58.30;;;;;;5052678;28;20219;-61
2023/11/19 07:37:40;;;;;;;20.95;4.30;;;18.60;58.30;;;;;;5052408;28;20666;-61
2023/11/19 07:40:11;;;;;;;20.73;4.10;;;18.60;58.30;;;;;;5052235;28;20701;-60
2023/11/19 07:42:38;;;;;;;19.90;4.55;;;18.50;58.20;;;;;;5052312;28;20302;-61
2023/11/19 07:45:07;;;;;;;22.42;4.40;;;18.60;58.30;;;;;;5052455;28;20298;-61
2023/11/19 07:47:34;;;;;;;14.90;3.60;;;18.50;58.20;;;;;;5052068;28;20667;-61
2023/11/19 07:50:01;;;;;;;18.15;4.00;;;18.60;58.30;;;;;;5052325;28;20224;-59
2023/11/19 07:52:28;;;;;;;16.80;4.00;;;18.60;58.20;;;;;;5051933;28;20558;-61
2023/11/19 07:54:55;;;;;;;17.92;4.22;;;18.50;58.20;;;;;;5052294;28;20222;-60
2023/11/19 07:57:27;;;;;;;18.77;4.10;;;18.50;58.20;;;;;;5052255;28;20188;-60
2023/11/19 07:59:54;;;;;;;18.60;4.40;;;18.50;58.20;;;;;;5052329;28;20220;-60
2023/11/19 08:02:23;;;;;;;16.55;4.40;;;18.50;58.20;;;;;;5052036;28;20219;-61
2023/11/19 08:04:51;;;;;;;16.70;3.90;;;18.50;58.20;;;;;;5052019;28;20786;-60
2023/11/19 08:07:19;;;;;;;19.77;3.97;;;18.50;58.10;;;;;;5051857;28;20227;-59
2023/11/19 08:09:46;;;;;;;16.10;4.22;;;18.50;58.20;;;;;;5052043;28;20306;-61
2023/11/19 08:12:14;;;;;;;20.35;3.85;;;18.50;58.10;;;;;;5052082;28;20191;-60
2023/11/19 08:14:43;;;;;;;20.88;4.60;;;18.50;58.10;;;;;;5052107;28;20317;-60
2023/11/19 08:17:10;;;;;;;23.88;4.30;;;18.50;58.10;;;;;;5052048;28;20561;-61
2023/11/19 08:19:37;;;;;;;15.50;4.13;;;18.50;58.10;;;;;;5052045;28;20302;-60
2023/11/19 08:22:04;;;;;;;17.73;3.72;;;18.50;58.00;;;;;;5051961;28;20562;-61
2023/11/19 08:24:31;;;;;;;22.50;4.45;;;18.50;58.00;;;;;;5051949;28;20576;-60
2023/11/19 08:26:58;;;;;;;18.67;4.63;;;18.50;58.00;;;;;;5052915;28;20278;-59
2023/11/19 08:29:27;;;;;;;16.38;3.83;;;18.50;58.00;;;;;;5055695;28;20688;-61
2023/11/19 08:31:55;;;;;;;16.55;4.07;;;18.50;58.00;;;;;;5055533;28;20227;-60
2023/11/19 08:34:23;;;;;;;22.48;4.40;;;18.50;58.00;;;;;;5055770;28;20301;-61
2023/11/19 08:36:53;;;;;;;15.00;3.83;;;18.50;58.00;;;;;;5055729;28;20215;-60
2023/11/19 08:39:20;;;;;;;18.95;4.20;;;18.50;58.00;;;;;;5055468;28;20227;-60
2023/11/19 08:41:47;;;;;;;16.75;3.47;;;18.50;58.00;;;;;;5055418;28;20212;-61
2023/11/19 08:44:15;;;;;;;18.40;4.30;;;18.50;58.00;;;;;;5055576;28;20298;-60
2023/11/19 08:46:48;;;;;;;15.13;3.55;;;18.50;58.00;;;;;;5055678;28;20194;-60
2023/11/19 08:49:16;;;;;;;15.90;3.63;;;18.50;58.00;;;;;;5055557;28;20215;-60
2023/11/19 08:51:43;;;;;;;17.65;3.95;;;18.50;58.00;;;;;;5055258;28;20282;-60
2023/11/19 08:54:10;;;;;;;16.95;3.75;;;18.50;58.00;;;;;;5055341;28;20219;-61
2023/11/19 08:56:39;;;;;;;18.88;4.15;;;18.50;58.00;;;;;;5055494;28;20222;-60
2023/11/19 08:59:06;;;;;;;19.48;4.25;;;18.50;58.00;;;;;;5055036;28;20184;-60
2023/11/19 09:01:32;;;;;;;12.13;3.40;;;18.50;57.90;;;;;;5055267;28;20195;-60
2023/11/19 09:03:59;;;;;;;18.67;4.25;;;18.50;58.00;;;;;;5055446;28;20199;-61
2023/11/19 09:06:28;;;;;;;21.90;4.22;;;18.50;57.90;;;;;;5054959;28;20306;-61
2023/11/19 09:08:58;;;;;;;16.88;4.00;;;18.50;57.90;;;;;;5055215;28;20188;-60
2023/11/19 09:11:25;;;;;;;15.30;4.30;;;18.50;57.90;;;;;;5055375;28;20283;-60
2023/11/19 09:13:52;;;;;;;15.57;3.45;;;18.50;57.80;;;;;;5055052;28;20200;-60
2023/11/19 09:16:19;;;;;;;18.35;4.10;;;18.50;57.80;;;;;;5054723;28;20671;-59
2023/11/19 09:18:46;;;;;;;16.77;3.97;;;18.50;57.80;;;;;;5055025;28;20190;-61
2023/11/19 09:21:13;;;;;;;15.55;3.70;;;18.40;57.80;;;;;;5055223;28;20254;-61
2023/11/19 09:23:41;;;;;;;17.02;3.70;;;18.50;57.80;;;;;;5054748;28;20329;-60
2023/11/19 09:26:09;;;;;;;24.40;4.53;;;18.50;57.80;;;;;;5055109;28;20302;-59
2023/11/19 09:28:36;;;;;;;14.00;3.45;;;18.50;57.80;;;;;;5054817;28;20274;-59
2023/11/19 09:31:04;;;;;;;17.75;4.03;;;18.40;57.70;;;;;;5054657;28;20211;-60
2023/11/19 09:33:31;;;;;;;17.88;3.75;;;18.50;57.70;;;;;;5054728;28;20275;-60
2023/11/19 09:35:58;;;;;;;14.95;3.92;;;18.50;57.70;;;;;;5054842;28;20219;-61
2023/11/19 09:38:25;;;;;;;14.40;3.47;;;18.40;57.60;;;;;;5054618;28;20183;-60
2023/11/19 09:40:54;;;;;;;18.00;4.53;;;18.40;57.60;;;;;;5054770;28;20219;-60
2023/11/19 09:43:21;;;;;;;16.05;4.15;;;18.40;57.50;;;;;;5054089;28;20222;-61
2023/11/19 09:45:50;;;;;;;18.90;4.20;;;18.50;57.60;;;;;;5054694;28;20215;-60
2023/11/19 09:48:18;;;;;;;17.98;3.97;;;18.40;57.60;;;;;;5054466;28;20199;-61
2023/11/19 09:50:46;;;;;;;19.90;4.05;;;18.40;57.60;;;;;;5054579;28;20230;-60
2023/11/19 09:53:13;;;;;;;20.45;4.28;;;18.50;57.60;;;;;;5054304;28;20283;-60
2023/11/19 09:55:40;;;;;;;19.75;3.75;;;18.40;57.50;;;;;;5054498;28;20306;-61
2023/11/19 09:58:08;;;;;;;20.25;4.50;;;18.40;57.50;;;;;;5053932;28;20279;-60
2023/11/19 10:00:35;;;;;;;21.45;3.42;;;18.50;57.60;;;;;;5054381;28;20215;-60
2023/11/19 10:03:05;;;;;;;17.92;4.47;;;18.40;57.50;;;;;;5054049;28;20309;-61
2023/11/19 10:05:32;;;;;;;18.20;3.88;;;18.40;57.50;;;;;;5053869;28;20638;-60
2023/11/19 10:07:59;;;;;;;17.10;4.05;;;18.40;57.50;;;;;;5053644;28;20227;-60
2023/11/19 10:10:26;;;;;;;20.45;4.32;;;18.40;57.50;;;;;;5054189;28;20311;-60
2023/11/19 10:12:53;;;;;;;14.10;3.60;;;18.40;57.50;;;;;;5053934;28;20188;-60
2023/11/19 10:15:24;;;;;;;16.98;3.63;;;18.40;57.50;;;;;;5054090;28;20234;-60
2023/11/19 10:17:51;;;;;;;14.65;3.72;;;18.40;58.10;;;;;;5053906;28;20275;-60
2023/11/19 10:20:18;;;;;;;18.90;3.90;;;18.40;57.50;;;;;;5053627;28;20757;-60
2023/11/19 10:22:45;;;;;;;16.33;4.57;;;18.40;57.50;;;;;;5053597;28;20298;-61
2023/11/19 10:25:24;;;;;;;15.30;4.10;;;18.40;57.40;;;;;;5053508;28;20277;-61
2023/11/19 10:27:51;;;;;;;19.42;3.85;;;18.40;57.40;;;;;;5053717;28;20191;-60
2023/11/19 10:30:24;;;;;;;23.38;4.28;;;18.40;57.40;;;;;;5053756;28;20250;-60
2023/11/19 10:33:08;;;;;;;20.60;4.05;;;18.40;57.40;;;;;;5053558;28;20196;-60
2023/11/19 10:35:35;;;;;;;19.48;4.43;;;18.40;57.40;;;;;;5053713;28;20302;-61
2023/11/19 10:38:14;;;;;;;17.15;3.90;;;18.40;57.40;;;;;;5053452;28;20188;-60
2023/11/19 10:40:41;;;;;;;21.50;3.95;;;18.40;57.40;;;;;;5053657;28;20219;-61
2023/11/19 10:43:08;;;;;;;18.17;4.30;;;18.40;57.30;;;;;;5053234;28;20257;-59
2023/11/19 10:45:36;;;;;;;14.93;3.70;;;18.40;57.40;;;;;;5053496;28;20215;-61
2023/11/19 10:48:06;;;;;;;16.38;3.55;;;18.40;57.30;;;;;;5052937;28;20565;-61
2023/11/19 10:50:33;;;;;;;21.30;4.20;;;18.40;57.30;;;;;;5052899;28;20269;-60
2023/11/19 10:53:00;;;;;;;17.45;4.40;;;18.40;57.20;;;;;;5053206;28;20238;-61
2023/11/19 10:55:30;;;;;;;19.17;3.88;;;18.40;57.20;;;;;;5053312;28;20222;-61
2023/11/19 10:58:01;;;;;;;16.85;3.63;;;18.40;57.20;;;;;;5053194;28;20270;-61
2023/11/19 11:00:31;;;;;;;14.10;4.00;;;18.40;57.20;;;;;;5053158;28;20212;-60
2023/11/19 11:03:06;;;;;;;19.95;4.20;;;18.40;57.20;;;;;;5052918;28;20247;-60
2023/11/19 11:05:34;;;;;;;17.42;3.33;;;18.40;57.20;;;;;;5053029;28;20301;-61
2023/11/19 11:08:03;;;;;;;18.75;3.72;;;18.40;57.20;;;;;;5052750;28;20239;-60
2023/11/19 11:10:36;;;;;;;14.13;3.65;;;18.40;57.20;;;;;;5053013;28;20215;-60
2023/11/19 11:13:04;;;;;;;17.00;4.28;;;18.40;57.20;;;;;;5052848;28;20624;-61
2023/11/19 11:15:32;;;;;;;20.88;4.35;;;18.40;57.10;;;;;;5052598;28;20298;-61
2023/11/19 11:18:03;;;;;;;17.55;3.67;;;18.40;57.10;;;;;;5052821;28;20287;-61
2023/11/19 11:20:31;;;;;;;17.42;4.10;;;18.40;57.10;;;;;;5052523;28;20709;-60
2023/11/19 11:23:16;;;;;;;17.40;4.25;;;18.40;57.10;;;;;;5052248;28;20736;-59
2023/11/19 11:25:55;;;;;;;14.43;3.83;;;18.40;57.10;;;;;;5052459;28;20758;-61
2023/11/19 11:28:32;;;;;;;16.38;3.80;;;18.40;57.20;;;;;;5052295;28;20692;-60
2023/11/19 11:31:16;;;;;;;12.35;3.42;;;18.40;57.10;;;;;;5052687;28;20254;-61
2023/11/19 11:34:10;;;;;;;19.77;3.90;;;18.40;57.10;;;;;;5052777;28;20274;-61
2023/11/19 11:36:46;;;;;;;14.82;3.30;;;18.40;57.10;;;;;;5052779;28;20279;-60
2023/11/19 11:39:15;;;;;;;15.32;3.70;;;18.40;57.20;;;;;;5052145;28;20756;-61
2023/11/19 11:41:41;;;;;;;20.50;4.13;;;18.30;57.00;;;;;;5052146;28;20657;-62
2023/11/19 11:44:09;;;;;;;14.73;3.42;;;18.40;57.10;;;;;;5051855;28;20721;-61
2023/11/19 11:46:55;;;;;;;15.15;3.45;;;18.40;57.10;;;;;;5052365;28;20187;-61
2023/11/19 11:49:34;;;;;;;15.43;3.70;;;18.40;57.00;;;;;;5052277;28;20188;-60
2023/11/19 11:52:04;;;;;;;14.00;3.28;;;18.40;57.00;;;;;;5052017;28;20192;-61
2023/11/19 11:54:32;;;;;;;22.60;3.92;;;18.40;57.00;;;;;;5052292;28;20564;-61
2023/11/19 11:57:10;;;;;;;17.42;3.90;;;18.40;57.00;;;;;;5052283;28;20195;-60
2023/11/19 11:59:46;;;;;;;18.60;3.35;;;18.40;57.00;;;;;;5051951;28;20720;-60
2023/11/19 12:02:16;;;;;;;14.20;3.75;;;18.40;57.00;;;;;;5053586;28;20187;-60
2023/11/19 12:04:48;;;;;;;12.98;3.33;;;18.30;56.90;;;;;;5056037;28;20581;-61
2023/11/19 12:07:18;;;;;;;18.13;3.38;;;18.40;57.00;;;;;;5055985;28;20223;-60
2023/11/19 12:09:52;;;;;;;14.27;3.65;;;18.40;57.00;;;;;;5056484;28;20222;-60
2023/11/19 12:12:21;;;;;;;19.40;4.55;;;18.40;57.00;;;;;;5056229;28;20198;-60
2023/11/19 12:15:14;;;;;;;12.35;3.10;;;18.40;56.90;;;;;;5056197;28;20247;-60
2023/11/19 12:17:49;;;;;;;13.98;3.67;;;18.40;56.90;;;;;;5041708;28;20229;-60
2023/11/19 12:20:18;;;;;;;11.98;3.03;;;18.30;56.80;;;;;;5055895;28;20221;-61
2023/11/19 12:22:46;;;;;;;17.77;3.60;;;18.40;57.00;;;;;;5055874;28;20215;-60
2023/11/19 12:25:14;;;;;;;16.25;3.95;;;18.30;56.80;;;;;;5056090;28;20573;-61
2023/11/19 12:27:42;;;;;;;13.10;3.20;;;18.30;56.80;;;;;;5056045;28;20285;-61
2023/11/19 12:30:10;;;;;;;19.42;4.10;;;18.30;56.80;;;;;;5056024;28;20302;-61
2023/11/19 12:32:41;;;;;;;13.77;3.63;;;18.40;56.90;;;;;;5055882;28;20196;-60
2023/11/19 12:35:11;;;;;;;16.13;4.00;;;18.40;56.90;;;;;;5055504;28;20768;-60
2023/11/19 12:37:43;;;;;;;18.25;3.90;;;18.30;56.70;;;;;;5055829;28;20604;-60
2023/11/19 12:40:18;;;;;;;18.70;4.85;;;18.30;56.80;;;;;;5055799;28;20211;-60
2023/11/19 12:42:45;;;;;;;16.60;3.45;;;18.40;56.80;;;;;;5055574;28;20192;-60